sensor_id;sensor_type;location;lat;lon;timestamp;temperature;humidity
296;DHT22;132;48.770;9.200;2024-03-08T00:00:35;5.00;1.00
296;DHT22;132;48.770;9.200;2024-03-08T00:03:21;4.00;1.00
296;DHT22;132;48.770;9.200;2024-03-08T00:14:40;4.00;1.00
296;DHT22;132;48.770;9.200;2024-03-08T00:17:28;4.50;1.00
296;DHT22;132;48.770;9.200;2024-03-08T00:20:15;3.90;1.00
296;DHT22;132;48.770;9.200;2024-03-08T00:25:51;3.70;1.00
296;DHT22;132;48.770;9.200;2024-03-08T00:28:38;5.90;1.00
296;DHT22;132;48.770;9.200;2024-03-08T00:34:21;3.60;1.00
296;DHT22;132;48.770;9.200;2024-03-08T02:23:40;2.50;1.00
296;DHT22;132;48.770;9.200;2024-03-08T02:26:26;2.60;1.00
296;DHT22;132;48.770;9.200;2024-03-08T02:29:13;2.60;1.00
296;DHT22;132;48.770;9.200;2024-03-08T02:32:01;2.60;1.00
296;DHT22;132;48.770;9.200;2024-03-08T02:34:47;2.60;1.00
296;DHT22;132;48.770;9.200;2024-03-08T03:00:14;2.80;1.00
296;DHT22;132;48.770;9.200;2024-03-08T03:51:43;2.60;1.00
296;DHT22;132;48.770;9.200;2024-03-08T03:54:30;2.60;1.00
296;DHT22;132;48.770;9.200;2024-03-08T04:14:14;2.60;1.00
296;DHT22;132;48.770;9.200;2024-03-08T05:47:15;2.30;1.00
296;DHT22;132;48.770;9.200;2024-03-08T06:02:11;2.20;1.00
296;DHT22;132;48.770;9.200;2024-03-08T06:19:54;2.30;1.00
296;DHT22;132;48.770;9.200;2024-03-08T06:22:51;2.30;1.00
296;DHT22;132;48.770;9.200;2024-03-08T06:28:25;2.30;1.00
296;DHT22;132;48.770;9.200;2024-03-08T06:31:12;2.30;1.00
296;DHT22;132;48.770;9.200;2024-03-08T06:33:59;2.30;1.00
296;DHT22;132;48.770;9.200;2024-03-08T06:36:45;2.40;1.00
296;DHT22;132;48.770;9.200;2024-03-08T06:39:32;2.40;1.00
296;DHT22;132;48.770;9.200;2024-03-08T06:42:19;2.50;1.00
296;DHT22;132;48.770;9.200;2024-03-08T07:09:40;3.40;1.00
296;DHT22;132;48.770;9.200;2024-03-08T07:32:19;3.70;1.00
296;DHT22;132;48.770;9.200;2024-03-08T07:35:11;3.80;1.00
296;DHT22;132;48.770;9.200;2024-03-08T07:43:43;4.10;1.00
296;DHT22;132;48.770;9.200;2024-03-08T07:46:30;3.90;1.00
296;DHT22;132;48.770;9.200;2024-03-08T07:49:17;4.00;1.00
296;DHT22;132;48.770;9.200;2024-03-08T07:57:46;4.30;1.00
296;DHT22;132;48.770;9.200;2024-03-08T08:00:34;4.20;1.00
296;DHT22;132;48.770;9.200;2024-03-08T08:06:43;4.30;1.00
296;DHT22;132;48.770;9.200;2024-03-08T08:12:20;4.20;1.00
296;DHT22;132;48.770;9.200;2024-03-08T08:18:03;4.30;1.00
296;DHT22;132;48.770;9.200;2024-03-08T08:20:51;4.30;1.00
296;DHT22;132;48.770;9.200;2024-03-08T08:23:41;4.30;1.00
296;DHT22;132;48.770;9.200;2024-03-08T08:26:28;4.30;1.00
296;DHT22;132;48.770;9.200;2024-03-08T08:29:15;4.40;1.00
296;DHT22;132;48.770;9.200;2024-03-08T08:32:04;4.50;1.00
296;DHT22;132;48.770;9.200;2024-03-08T08:34:50;4.30;1.00
296;DHT22;132;48.770;9.200;2024-03-08T08:37:39;4.20;1.00
296;DHT22;132;48.770;9.200;2024-03-08T08:40:25;3.50;1.00
296;DHT22;132;48.770;9.200;2024-03-08T08:47:27;4.40;1.00
296;DHT22;132;48.770;9.200;2024-03-08T08:50:14;4.40;1.00
296;DHT22;132;48.770;9.200;2024-03-08T08:53:02;4.50;1.00
296;DHT22;132;48.770;9.200;2024-03-08T08:58:32;4.70;1.00
296;DHT22;132;48.770;9.200;2024-03-08T09:09:53;4.70;1.00
296;DHT22;132;48.770;9.200;2024-03-08T09:12:43;4.70;1.00
296;DHT22;132;48.770;9.200;2024-03-08T09:15:29;4.80;1.00
296;DHT22;132;48.770;9.200;2024-03-08T09:18:16;4.90;1.00
296;DHT22;132;48.770;9.200;2024-03-08T09:27:02;4.90;1.00
296;DHT22;132;48.770;9.200;2024-03-08T09:29:49;4.90;1.00
296;DHT22;132;48.770;9.200;2024-03-08T09:32:36;4.90;1.00
296;DHT22;132;48.770;9.200;2024-03-08T09:35:23;5.00;1.00
296;DHT22;132;48.770;9.200;2024-03-08T09:40:59;5.10;1.00
296;DHT22;132;48.770;9.200;2024-03-08T09:43:47;5.10;1.00
296;DHT22;132;48.770;9.200;2024-03-08T09:46:34;5.20;1.00
296;DHT22;132;48.770;9.200;2024-03-08T09:49:21;5.20;1.00
296;DHT22;132;48.770;9.200;2024-03-08T09:52:08;5.30;1.00
296;DHT22;132;48.770;9.200;2024-03-08T09:54:54;5.30;1.00
296;DHT22;132;48.770;9.200;2024-03-08T09:57:43;5.50;1.00
296;DHT22;132;48.770;9.200;2024-03-08T10:00:49;5.60;1.00
296;DHT22;132;48.770;9.200;2024-03-08T10:03:36;5.60;1.00
296;DHT22;132;48.770;9.200;2024-03-08T10:06:24;5.60;1.00
296;DHT22;132;48.770;9.200;2024-03-08T10:09:10;5.70;1.00
296;DHT22;132;48.770;9.200;2024-03-08T10:11:58;5.80;1.00
296;DHT22;132;48.770;9.200;2024-03-08T10:14:45;5.90;1.00
296;DHT22;132;48.770;9.200;2024-03-08T10:17:34;5.70;1.00
296;DHT22;132;48.770;9.200;2024-03-08T10:20:21;5.70;1.00
296;DHT22;132;48.770;9.200;2024-03-08T10:23:08;5.80;1.00
296;DHT22;132;48.770;9.200;2024-03-08T10:25:56;5.90;1.00
296;DHT22;132;48.770;9.200;2024-03-08T10:28:45;5.90;1.00
296;DHT22;132;48.770;9.200;2024-03-08T10:31:34;6.00;1.00
296;DHT22;132;48.770;9.200;2024-03-08T10:34:20;6.10;1.00
296;DHT22;132;48.770;9.200;2024-03-08T10:37:07;6.10;1.00
296;DHT22;132;48.770;9.200;2024-03-08T10:40:04;6.30;1.00
296;DHT22;132;48.770;9.200;2024-03-08T10:42:59;6.40;1.00
296;DHT22;132;48.770;9.200;2024-03-08T10:45:47;6.60;1.00
296;DHT22;132;48.770;9.200;2024-03-08T10:48:43;6.70;1.00
296;DHT22;132;48.770;9.200;2024-03-08T10:51:30;6.90;1.00
296;DHT22;132;48.770;9.200;2024-03-08T10:54:19;7.00;1.00
296;DHT22;132;48.770;9.200;2024-03-08T10:57:07;7.20;1.00
296;DHT22;132;48.770;9.200;2024-03-08T10:59:55;7.30;1.00
296;DHT22;132;48.770;9.200;2024-03-08T11:02:45;7.60;1.00
296;DHT22;132;48.770;9.200;2024-03-08T11:08:24;7.70;1.00
296;DHT22;132;48.770;9.200;2024-03-08T11:15:44;9.20;1.00
296;DHT22;132;48.770;9.200;2024-03-08T11:21:20;9.70;1.00
296;DHT22;132;48.770;9.200;2024-03-08T11:24:13;9.60;1.00
296;DHT22;132;48.770;9.200;2024-03-08T11:27:00;9.60;1.00
296;DHT22;132;48.770;9.200;2024-03-08T11:30:03;10.70;1.00
296;DHT22;132;48.770;9.200;2024-03-08T11:33:01;11.20;1.00
296;DHT22;132;48.770;9.200;2024-03-08T11:35:49;11.90;1.00
296;DHT22;132;48.770;9.200;2024-03-08T11:38:40;13.80;1.00
296;DHT22;132;48.770;9.200;2024-03-08T11:41:27;15.00;1.00
296;DHT22;132;48.770;9.200;2024-03-08T11:44:13;14.90;1.00
296;DHT22;132;48.770;9.200;2024-03-08T11:47:08;15.10;1.00
296;DHT22;132;48.770;9.200;2024-03-08T11:49:55;15.50;1.00
296;DHT22;132;48.770;9.200;2024-03-08T11:55:31;17.70;1.00
296;DHT22;132;48.770;9.200;2024-03-08T11:58:21;18.10;1.00
296;DHT22;132;48.770;9.200;2024-03-08T12:01:10;18.20;1.00
296;DHT22;132;48.770;9.200;2024-03-08T12:04:00;18.20;1.00
296;DHT22;132;48.770;9.200;2024-03-08T12:06:47;19.00;1.00
296;DHT22;132;48.770;9.200;2024-03-08T12:09:37;19.10;1.00
296;DHT22;132;48.770;9.200;2024-03-08T12:12:24;19.90;1.00
296;DHT22;132;48.770;9.200;2024-03-08T12:15:11;20.20;1.00
296;DHT22;132;48.770;9.200;2024-03-08T12:17:58;20.40;1.00
296;DHT22;132;48.770;9.200;2024-03-08T12:20:46;20.30;1.00
296;DHT22;132;48.770;9.200;2024-03-08T12:23:37;20.80;1.00
296;DHT22;132;48.770;9.200;2024-03-08T12:26:25;20.90;1.00
296;DHT22;132;48.770;9.200;2024-03-08T12:29:16;20.90;1.00
296;DHT22;132;48.770;9.200;2024-03-08T12:32:07;21.00;1.00
296;DHT22;132;48.770;9.200;2024-03-08T12:34:54;20.70;1.00
296;DHT22;132;48.770;9.200;2024-03-08T12:37:41;20.50;1.00
296;DHT22;132;48.770;9.200;2024-03-08T12:40:32;20.70;1.00
296;DHT22;132;48.770;9.200;2024-03-08T12:43:19;20.60;1.00
296;DHT22;132;48.770;9.200;2024-03-08T12:48:52;20.90;1.00
296;DHT22;132;48.770;9.200;2024-03-08T12:51:39;20.40;1.00
296;DHT22;132;48.770;9.200;2024-03-08T12:54:28;20.40;1.00
296;DHT22;132;48.770;9.200;2024-03-08T12:57:14;20.40;1.00
296;DHT22;132;48.770;9.200;2024-03-08T13:00:02;19.90;1.00
296;DHT22;132;48.770;9.200;2024-03-08T13:02:49;20.00;1.00
296;DHT22;132;48.770;9.200;2024-03-08T13:08:55;18.90;1.00
296;DHT22;132;48.770;9.200;2024-03-08T13:11:42;17.90;1.00
296;DHT22;132;48.770;9.200;2024-03-08T13:14:29;16.70;1.00
296;DHT22;132;48.770;9.200;2024-03-08T13:17:18;15.60;1.00
296;DHT22;132;48.770;9.200;2024-03-08T13:20:05;14.90;1.00
296;DHT22;132;48.770;9.200;2024-03-08T13:22:52;14.20;1.00
296;DHT22;132;48.770;9.200;2024-03-08T13:25:39;13.60;1.00
296;DHT22;132;48.770;9.200;2024-03-08T13:28:26;13.30;1.00
296;DHT22;132;48.770;9.200;2024-03-08T13:31:21;13.00;1.00
296;DHT22;132;48.770;9.200;2024-03-08T13:34:08;12.70;1.00
296;DHT22;132;48.770;9.200;2024-03-08T13:36:57;12.10;1.00
296;DHT22;132;48.770;9.200;2024-03-08T13:39:46;11.70;1.00
296;DHT22;132;48.770;9.200;2024-03-08T13:42:33;11.80;1.00
296;DHT22;132;48.770;9.200;2024-03-08T13:45:19;11.90;1.00
296;DHT22;132;48.770;9.200;2024-03-08T13:48:10;12.00;1.00
296;DHT22;132;48.770;9.200;2024-03-08T13:51:00;12.20;1.00
296;DHT22;132;48.770;9.200;2024-03-08T13:56:31;12.00;1.00
296;DHT22;132;48.770;9.200;2024-03-08T13:59:18;11.70;1.00
296;DHT22;132;48.770;9.200;2024-03-08T14:10:27;11.20;1.00
296;DHT22;132;48.770;9.200;2024-03-08T14:13:14;11.00;1.00
296;DHT22;132;48.770;9.200;2024-03-08T14:16:02;10.80;1.00
296;DHT22;132;48.770;9.200;2024-03-08T14:18:49;10.70;1.00
296;DHT22;132;48.770;9.200;2024-03-08T14:21:38;10.80;1.00
296;DHT22;132;48.770;9.200;2024-03-08T14:24:26;10.90;1.00
296;DHT22;132;48.770;9.200;2024-03-08T14:27:36;11.00;1.00
296;DHT22;132;48.770;9.200;2024-03-08T14:30:23;11.00;1.00
296;DHT22;132;48.770;9.200;2024-03-08T14:33:54;10.90;1.00
296;DHT22;132;48.770;9.200;2024-03-08T14:39:29;11.10;1.00
296;DHT22;132;48.770;9.200;2024-03-08T14:42:16;11.20;1.00
296;DHT22;132;48.770;9.200;2024-03-08T14:45:02;11.10;1.00
296;DHT22;132;48.770;9.200;2024-03-08T14:47:50;11.20;1.00
296;DHT22;132;48.770;9.200;2024-03-08T14:50:37;11.10;1.00
296;DHT22;132;48.770;9.200;2024-03-08T14:53:23;11.00;1.00
296;DHT22;132;48.770;9.200;2024-03-08T14:56:11;11.10;1.00
296;DHT22;132;48.770;9.200;2024-03-08T14:59:02;11.00;1.00
296;DHT22;132;48.770;9.200;2024-03-08T15:01:51;11.10;1.00
296;DHT22;132;48.770;9.200;2024-03-08T15:04:37;11.00;1.00
296;DHT22;132;48.770;9.200;2024-03-08T15:07:27;11.00;1.00
296;DHT22;132;48.770;9.200;2024-03-08T15:10:16;10.80;1.00
296;DHT22;132;48.770;9.200;2024-03-08T15:16:48;10.60;1.00
296;DHT22;132;48.770;9.200;2024-03-08T15:19:57;10.50;1.00
296;DHT22;132;48.770;9.200;2024-03-08T15:22:47;10.50;1.00
296;DHT22;132;48.770;9.200;2024-03-08T15:29:12;10.30;1.00
296;DHT22;132;48.770;9.200;2024-03-08T15:32:07;10.30;1.00
296;DHT22;132;48.770;9.200;2024-03-08T15:34:56;10.30;1.00
296;DHT22;132;48.770;9.200;2024-03-08T15:37:53;10.40;1.00
296;DHT22;132;48.770;9.200;2024-03-08T15:40:41;10.30;1.00
296;DHT22;132;48.770;9.200;2024-03-08T15:43:36;10.30;1.00
296;DHT22;132;48.770;9.200;2024-03-08T15:46:23;10.30;1.00
296;DHT22;132;48.770;9.200;2024-03-08T15:49:12;10.20;1.00
296;DHT22;132;48.770;9.200;2024-03-08T15:51:58;10.20;1.00
296;DHT22;132;48.770;9.200;2024-03-08T15:54:45;10.10;1.00
296;DHT22;132;48.770;9.200;2024-03-08T15:57:32;10.10;1.00
296;DHT22;132;48.770;9.200;2024-03-08T16:00:20;10.20;1.00
296;DHT22;132;48.770;9.200;2024-03-08T16:03:42;10.10;1.00
296;DHT22;132;48.770;9.200;2024-03-08T16:21:44;9.90;1.00
296;DHT22;132;48.770;9.200;2024-03-08T16:24:43;9.90;1.00
296;DHT22;132;48.770;9.200;2024-03-08T16:27:30;10.50;1.00
296;DHT22;132;48.770;9.200;2024-03-08T16:30:58;9.60;1.00
296;DHT22;132;48.770;9.200;2024-03-08T16:44:00;9.30;1.00
296;DHT22;132;48.770;9.200;2024-03-08T16:46:47;10.70;1.00
296;DHT22;132;48.770;9.200;2024-03-08T16:54:20;9.60;1.00
296;DHT22;132;48.770;9.200;2024-03-08T16:57:09;11.90;1.00
296;DHT22;132;48.770;9.200;2024-03-08T17:03:53;9.40;1.00
296;DHT22;132;48.770;9.200;2024-03-08T17:06:42;9.50;1.00
296;DHT22;132;48.770;9.200;2024-03-08T17:09:29;9.10;1.00
296;DHT22;132;48.770;9.200;2024-03-08T17:12:16;11.50;1.00
296;DHT22;132;48.770;9.200;2024-03-08T17:15:05;11.30;1.00
296;DHT22;132;48.770;9.200;2024-03-08T17:28:18;6.90;1.00
296;DHT22;132;48.770;9.200;2024-03-08T18:25:59;7.50;1.00
296;DHT22;132;48.770;9.200;2024-03-08T18:28:47;7.50;1.00
296;DHT22;132;48.770;9.200;2024-03-08T18:31:35;7.50;1.00
296;DHT22;132;48.770;9.200;2024-03-08T18:34:21;7.50;1.00
296;DHT22;132;48.770;9.200;2024-03-08T18:37:08;7.60;1.00
296;DHT22;132;48.770;9.200;2024-03-08T18:41:10;7.50;1.00
296;DHT22;132;48.770;9.200;2024-03-08T18:43:57;5.80;1.00
296;DHT22;132;48.770;9.200;2024-03-08T18:51:16;7.50;1.00
296;DHT22;132;48.770;9.200;2024-03-08T18:54:03;7.40;1.00
296;DHT22;132;48.770;9.200;2024-03-08T18:57:18;7.30;1.00
296;DHT22;132;48.770;9.200;2024-03-08T19:00:08;7.30;1.00
296;DHT22;132;48.770;9.200;2024-03-08T19:03:50;7.30;1.00
296;DHT22;132;48.770;9.200;2024-03-08T19:10:18;7.30;1.00
296;DHT22;132;48.770;9.200;2024-03-08T19:13:07;7.20;1.00
296;DHT22;132;48.770;9.200;2024-03-08T19:15:57;7.20;1.00
296;DHT22;132;48.770;9.200;2024-03-08T19:18:44;7.20;1.00
296;DHT22;132;48.770;9.200;2024-03-08T19:21:31;7.10;1.00
296;DHT22;132;48.770;9.200;2024-03-08T19:24:18;7.20;1.00
296;DHT22;132;48.770;9.200;2024-03-08T19:29:53;7.20;1.00
296;DHT22;132;48.770;9.200;2024-03-08T19:36:09;7.30;1.00
296;DHT22;132;48.770;9.200;2024-03-08T19:38:58;7.30;1.00
296;DHT22;132;48.770;9.200;2024-03-08T19:41:48;7.30;1.00
296;DHT22;132;48.770;9.200;2024-03-08T19:44:34;7.30;1.00
296;DHT22;132;48.770;9.200;2024-03-08T19:47:24;7.30;1.00
296;DHT22;132;48.770;9.200;2024-03-08T19:50:14;7.30;1.00
296;DHT22;132;48.770;9.200;2024-03-08T19:53:02;7.30;1.00
296;DHT22;132;48.770;9.200;2024-03-08T19:55:53;7.20;1.00
296;DHT22;132;48.770;9.200;2024-03-08T20:03:00;7.10;1.00
296;DHT22;132;48.770;9.200;2024-03-08T20:06:13;7.00;1.00
296;DHT22;132;48.770;9.200;2024-03-08T20:08:59;6.70;1.00
296;DHT22;132;48.770;9.200;2024-03-08T20:11:46;6.90;1.00
296;DHT22;132;48.770;9.200;2024-03-08T20:14:33;6.90;1.00
296;DHT22;132;48.770;9.200;2024-03-08T20:17:22;6.90;1.00
296;DHT22;132;48.770;9.200;2024-03-08T20:20:13;6.90;1.00
296;DHT22;132;48.770;9.200;2024-03-08T20:23:05;6.80;1.00
296;DHT22;132;48.770;9.200;2024-03-08T21:19:56;5.50;1.00
296;DHT22;132;48.770;9.200;2024-03-08T21:22:46;5.40;1.00
296;DHT22;132;48.770;9.200;2024-03-08T21:25:37;6.40;1.00
296;DHT22;132;48.770;9.200;2024-03-08T21:28:26;7.00;1.00
296;DHT22;132;48.770;9.200;2024-03-08T21:31:16;6.60;1.00
296;DHT22;132;48.770;9.200;2024-03-08T21:34:04;6.70;1.00
296;DHT22;132;48.770;9.200;2024-03-08T21:36:51;6.20;1.00
296;DHT22;132;48.770;9.200;2024-03-08T21:39:39;7.30;1.00
296;DHT22;132;48.770;9.200;2024-03-08T21:45:42;5.60;1.00
296;DHT22;132;48.770;9.200;2024-03-08T21:48:29;5.80;1.00
296;DHT22;132;48.770;9.200;2024-03-08T21:51:17;5.30;1.00
296;DHT22;132;48.770;9.200;2024-03-08T21:54:04;5.70;1.00
296;DHT22;132;48.770;9.200;2024-03-08T22:00:51;4.90;1.00
296;DHT22;132;48.770;9.200;2024-03-08T22:03:49;5.30;1.00
296;DHT22;132;48.770;9.200;2024-03-08T22:06:36;5.00;1.00
296;DHT22;132;48.770;9.200;2024-03-08T22:39:35;5.40;1.00
296;DHT22;132;48.770;9.200;2024-03-08T22:42:22;4.50;1.00
296;DHT22;132;48.770;9.200;2024-03-08T22:45:12;6.00;1.00
296;DHT22;132;48.770;9.200;2024-03-08T22:48:03;5.40;1.00
296;DHT22;132;48.770;9.200;2024-03-08T22:53:59;5.20;1.00
296;DHT22;132;48.770;9.200;2024-03-08T22:56:46;4.80;1.00
296;DHT22;132;48.770;9.200;2024-03-08T23:05:26;5.20;1.00
296;DHT22;132;48.770;9.200;2024-03-08T23:08:24;5.80;1.00
296;DHT22;132;48.770;9.200;2024-03-08T23:11:16;6.20;1.00
